Time;durP1;ratioP1;P1;durP2;ratioP2;P2;SDS_P1;SDS_P2;PMS_P1;PMS_P2;Temp;Humidity;BMP_temperature;BMP_pressure;BME280_temperature;BME280_humidity;BME280_pressure;Samples;Min_cycle;Max_cycle;Signal;HPM_P1;HPM_P2
2022/02/23 00:00:36;;;;;;;24.48;4.35;;;;;;;;;;5049688;28;20044;-82
2022/02/23 00:03:02;;;;;;;22.48;4.90;;;;;;;;;;5034165;28;20146;-82
2022/02/23 00:05:28;;;;;;;17.88;3.58;;;;;;;;;;5053370;28;20036;-81
2022/02/23 00:07:54;;;;;;;22.27;3.28;;;;;;;;;;5050340;28;20032;-82
2022/02/23 00:10:20;;;;;;;19.15;3.42;;;;;;;;;;5057123;28;20071;-82
2022/02/23 00:12:46;;;;;;;21.55;3.60;;;;;;;;;;5034204;28;20761;-81
2022/02/23 00:15:12;;;;;;;23.02;4.32;;;;;;;;;;5054684;28;20191;-81
2022/02/23 00:17:38;;;;;;;25.45;3.42;;;;;;;;;;5051371;28;20040;-82
2022/02/23 00:20:05;;;;;;;18.10;3.42;;;;;;;;;;5049918;28;20632;-82
2022/02/23 00:22:32;;;;;;;28.40;4.45;;;;;;;;;;5053612;28;20397;-82
2022/02/23 00:24:58;;;;;;;27.45;3.78;;;;;;;;;;5053373;28;20075;-81
2022/02/23 00:27:24;;;;;;;22.58;3.63;;;;;;;;;;5028701;28;20140;-82
2022/02/23 00:29:51;;;;;;;24.83;4.28;;;;;;;;;;5045890;28;20052;-81
2022/02/23 00:32:17;;;;;;;21.05;3.38;;;;;;;;;;5057570;28;20072;-82
2022/02/23 00:34:43;;;;;;;25.65;4.03;;;;;;;;;;5055299;28;20041;-82
2022/02/23 00:37:09;;;;;;;25.83;3.92;;;;;;;;;;5056013;28;20060;-81
2022/02/23 00:39:35;;;;;;;21.67;3.53;;;;;;;;;;5042160;28;20084;-82
2022/02/23 00:42:01;;;;;;;19.92;3.50;;;;;;;;;;5052577;28;20040;-82
2022/02/23 00:44:28;;;;;;;22.95;4.45;;;;;;;;;;5055767;28;20047;-82
2022/02/23 00:46:54;;;;;;;22.23;3.65;;;;;;;;;;5055476;28;20534;-82
2022/02/23 00:49:21;;;;;;;23.77;3.92;;;;;;;;;;5052808;28;20073;-81
2022/02/23 00:51:47;;;;;;;15.82;2.92;;;;;;;;;;5054169;28;20141;-82
2022/02/23 00:54:13;;;;;;;25.65;3.75;;;;;;;;;;5052910;28;20036;-82
2022/02/23 00:56:39;;;;;;;19.15;3.58;;;;;;;;;;5029709;28;20072;-82
2022/02/23 00:59:05;;;;;;;23.23;4.28;;;;;;;;;;5058095;28;20078;-82
2022/02/23 01:01:30;;;;;;;19.42;3.25;;;;;;;;;;5040881;28;20462;-81
2022/02/23 01:03:56;;;;;;;21.52;3.05;;;;;;;;;;5064723;28;20040;-82
2022/02/23 01:06:22;;;;;;;22.95;4.18;;;;;;;;;;5057457;28;20032;-82
2022/02/23 01:08:49;;;;;;;26.50;3.90;;;;;;;;;;5046558;28;20044;-82
2022/02/23 01:11:20;;;;;;;19.60;3.35;;;;;;;;;;5047944;28;20041;-82
2022/02/23 01:13:46;;;;;;;21.08;4.10;;;;;;;;;;5052690;28;20055;-82
2022/02/23 01:16:12;;;;;;;20.27;4.20;;;;;;;;;;5041283;28;20036;-82
2022/02/23 01:18:38;;;;;;;19.50;3.17;;;;;;;;;;5037968;28;20040;-82
2022/02/23 01:21:04;;;;;;;21.15;3.60;;;;;;;;;;5032174;28;20502;-82
2022/02/23 01:23:30;;;;;;;19.52;3.60;;;;;;;;;;5040758;28;20117;-82
2022/02/23 01:25:56;;;;;;;27.75;4.78;;;;;;;;;;5045468;28;20137;-82
2022/02/23 01:28:22;;;;;;;24.17;4.15;;;;;;;;;;5055245;28;20028;-81
2022/02/23 01:30:48;;;;;;;25.05;3.42;;;;;;;;;;5054127;28;20060;-82
2022/02/23 01:33:14;;;;;;;23.58;4.30;;;;;;;;;;5054906;28;20048;-82
2022/02/23 01:35:40;;;;;;;18.55;3.40;;;;;;;;;;5063047;28;20047;-81
2022/02/23 01:38:06;;;;;;;19.85;3.10;;;;;;;;;;5042280;28;20048;-81
2022/02/23 01:40:33;;;;;;;21.80;3.53;;;;;;;;;;5061096;28;20036;-81
2022/02/23 01:42:59;;;;;;;18.27;3.42;;;;;;;;;;5041516;28;20068;-81
2022/02/23 01:45:25;;;;;;;23.90;4.13;;;;;;;;;;5039413;28;20496;-81
2022/02/23 01:47:51;;;;;;;26.42;4.32;;;;;;;;;;5048175;28;20040;-82
2022/02/23 01:50:17;;;;;;;21.58;4.05;;;;;;;;;;5059064;28;20040;-82
2022/02/23 01:52:43;;;;;;;28.23;4.80;;;;;;;;;;5053831;28;20076;-82
2022/02/23 01:55:09;;;;;;;17.33;3.28;;;;;;;;;;5056026;28;20036;-82
2022/02/23 01:57:35;;;;;;;25.65;4.60;;;;;;;;;;5060454;28;20044;-80
2022/02/23 02:00:01;;;;;;;23.13;3.80;;;;;;;;;;5058436;28;20362;-80
2022/02/23 02:02:29;;;;;;;22.27;4.40;;;;;;;;;;5039437;28;20461;-81
2022/02/23 02:04:55;;;;;;;24.25;3.40;;;;;;;;;;5054645;28;20085;-81
2022/02/23 02:07:21;;;;;;;25.08;3.83;;;;;;;;;;5053592;28;20123;-81
2022/02/23 02:09:47;;;;;;;26.67;3.95;;;;;;;;;;5046128;28;20045;-81
2022/02/23 02:12:13;;;;;;;18.80;3.65;;;;;;;;;;5053795;28;20048;-80
2022/02/23 02:14:39;;;;;;;20.80;3.72;;;;;;;;;;5056111;28;20040;-80
2022/02/23 02:17:05;;;;;;;26.33;4.55;;;;;;;;;;5031121;28;20060;-81
2022/02/23 02:19:31;;;;;;;22.40;3.40;;;;;;;;;;5031235;28;20504;-81
2022/02/23 02:22:01;;;;;;;27.73;3.80;;;;;;;;;;5035463;28;20474;-81
2022/02/23 02:24:29;;;;;;;24.83;3.97;;;;;;;;;;5054917;28;20075;-80
2022/02/23 02:26:55;;;;;;;23.52;4.70;;;;;;;;;;5051815;28;20045;-81
2022/02/23 02:29:21;;;;;;;23.15;3.53;;;;;;;;;;5063199;28;20044;-81
2022/02/23 02:31:48;;;;;;;28.52;3.97;;;;;;;;;;5039804;28;20127;-81
2022/02/23 02:34:14;;;;;;;29.73;4.10;;;;;;;;;;5055515;28;20052;-81
2022/02/23 02:36:40;;;;;;;29.52;4.55;;;;;;;;;;5034618;28;20082;-81
2022/02/23 02:39:07;;;;;;;22.27;4.53;;;;;;;;;;5054254;28;20102;-81
2022/02/23 02:41:33;;;;;;;19.65;3.88;;;;;;;;;;5055012;28;20371;-81
2022/02/23 02:43:59;;;;;;;26.60;3.70;;;;;;;;;;5038715;28;20116;-81
2022/02/23 02:46:25;;;;;;;24.00;3.92;;;;;;;;;;5039538;28;20072;-81
2022/02/23 02:48:51;;;;;;;21.80;3.75;;;;;;;;;;5035953;28;20041;-81
2022/02/23 02:51:17;;;;;;;25.27;4.05;;;;;;;;;;5054096;28;20040;-81
2022/02/23 02:53:43;;;;;;;23.40;4.05;;;;;;;;;;5052993;28;20128;-80
2022/02/23 02:56:09;;;;;;;28.13;4.22;;;;;;;;;;5044578;28;20135;-81
2022/02/23 02:58:35;;;;;;;25.27;4.20;;;;;;;;;;5027994;28;20052;-81
2022/02/23 03:01:01;;;;;;;23.73;3.70;;;;;;;;;;5054262;28;20033;-81
2022/02/23 03:03:27;;;;;;;28.10;5.65;;;;;;;;;;5045294;28;20068;-80
2022/02/23 03:05:53;;;;;;;21.40;3.92;;;;;;;;;;5054623;28;20109;-81
2022/02/23 03:08:19;;;;;;;25.77;4.38;;;;;;;;;;5053023;28;20120;-81
2022/02/23 03:10:45;;;;;;;23.45;3.58;;;;;;;;;;5044661;28;20051;-81
2022/02/23 03:13:11;;;;;;;23.95;4.22;;;;;;;;;;5038565;28;20040;-81
2022/02/23 03:15:37;;;;;;;20.15;3.95;;;;;;;;;;5048669;28;20390;-80
2022/02/23 03:18:03;;;;;;;27.20;4.03;;;;;;;;;;5040971;28;20075;-81
2022/02/23 03:20:30;;;;;;;20.25;3.40;;;;;;;;;;5028528;28;20078;-80
2022/02/23 03:22:56;;;;;;;26.25;4.05;;;;;;;;;;5043846;28;20650;-81
2022/02/23 03:25:22;;;;;;;25.58;4.63;;;;;;;;;;5044334;28;20040;-81
2022/02/23 03:27:48;;;;;;;23.60;3.88;;;;;;;;;;5044092;28;20095;-81
2022/02/23 03:30:14;;;;;;;26.80;3.95;;;;;;;;;;5061849;28;20043;-81
2022/02/23 03:32:40;;;;;;;26.42;4.28;;;;;;;;;;5046396;28;20036;-81
2022/02/23 03:35:07;;;;;;;24.67;3.88;;;;;;;;;;5053586;28;20049;-81
2022/02/23 03:37:33;;;;;;;25.40;3.83;;;;;;;;;;5053655;28;20056;-81
2022/02/23 03:39:59;;;;;;;20.83;3.83;;;;;;;;;;5053033;28;20044;-81
2022/02/23 03:42:25;;;;;;;21.95;3.63;;;;;;;;;;5053840;28;20036;-81
2022/02/23 03:44:51;;;;;;;20.58;3.45;;;;;;;;;;5052730;28;20548;-81
2022/02/23 03:47:17;;;;;;;26.35;3.58;;;;;;;;;;5038529;28;20032;-81
2022/02/23 03:49:43;;;;;;;22.88;4.03;;;;;;;;;;5035141;28;20492;-81
2022/02/23 03:52:09;;;;;;;24.17;3.47;;;;;;;;;;5051454;28;20037;-81
2022/02/23 03:54:35;;;;;;;27.98;4.28;;;;;;;;;;5033346;28;20048;-80
2022/02/23 03:57:01;;;;;;;22.48;3.80;;;;;;;;;;5050665;28;20052;-80
2022/02/23 03:59:27;;;;;;;23.05;3.70;;;;;;;;;;5052293;28;20044;-81
2022/02/23 04:01:54;;;;;;;22.30;5.82;;;;;;;;;;5053217;28;20043;-80
2022/02/23 04:04:20;;;;;;;27.90;4.57;;;;;;;;;;5032351;28;20485;-81
2022/02/23 04:06:46;;;;;;;19.95;3.38;;;;;;;;;;5051281;28;20422;-80
2022/02/23 04:09:13;;;;;;;27.27;3.72;;;;;;;;;;5044928;28;20064;-81
2022/02/23 04:11:39;;;;;;;22.92;3.75;;;;;;;;;;5050174;28;20044;-81
2022/02/23 04:14:05;;;;;;;20.10;3.13;;;;;;;;;;5053626;28;20047;-81
2022/02/23 04:16:31;;;;;;;28.92;4.55;;;;;;;;;;5049428;28;20041;-81
2022/02/23 04:18:57;;;;;;;24.98;4.60;;;;;;;;;;5054092;28;20032;-81
2022/02/23 04:21:23;;;;;;;22.23;3.63;;;;;;;;;;5034133;28;20043;-81
2022/02/23 04:23:49;;;;;;;16.08;3.45;;;;;;;;;;5046735;28;20037;-81
2022/02/23 04:26:16;;;;;;;20.65;3.75;;;;;;;;;;5031847;28;20466;-81
2022/02/23 04:28:42;;;;;;;20.35;3.13;;;;;;;;;;5035316;28;20036;-81
2022/02/23 04:31:09;;;;;;;16.65;3.25;;;;;;;;;;5049203;28;20651;-81
2022/02/23 04:33:38;;;;;;;26.20;3.67;;;;;;;;;;5050445;28;20040;-81
2022/02/23 04:36:08;;;;;;;21.15;3.40;;;;;;;;;;5049951;28;20087;-81
2022/02/23 04:38:34;;;;;;;21.88;3.67;;;;;;;;;;5031044;28;20078;-81
2022/02/23 04:41:00;;;;;;;21.55;3.40;;;;;;;;;;5051410;28;20078;-81
2022/02/23 04:43:26;;;;;;;22.05;3.03;;;;;;;;;;5046191;28;20444;-81
2022/02/23 04:45:52;;;;;;;21.33;4.22;;;;;;;;;;5044116;28;20065;-81
2022/02/23 04:48:18;;;;;;;22.80;3.38;;;;;;;;;;5052459;28;20102;-81
2022/02/23 04:50:45;;;;;;;26.20;4.32;;;;;;;;;;5069736;22;20369;-79
2022/02/23 04:53:11;;;;;;;14.85;3.08;;;;;;;;;;5006243;28;20049;-79
2022/02/23 04:55:37;;;;;;;22.10;3.60;;;;;;;;;;5041602;28;20426;-79
2022/02/23 04:58:07;;;;;;;25.17;3.63;;;;;;;;;;5050330;28;20052;-79
2022/02/23 05:00:42;;;;;;;21.75;4.32;;;;;;;;;;5029854;28;20041;-79
2022/02/23 05:03:08;;;;;;;25.75;4.15;;;;;;;;;;5046870;28;20593;-79
2022/02/23 05:05:35;;;;;;;19.80;3.45;;;;;;;;;;5049619;28;20056;-79
2022/02/23 05:08:01;;;;;;;24.98;2.97;;;;;;;;;;5017545;28;20445;-79
2022/02/23 05:10:27;;;;;;;21.33;3.70;;;;;;;;;;5017674;28;20049;-79
2022/02/23 05:12:53;;;;;;;19.42;3.15;;;;;;;;;;5040675;28;20048;-79
2022/02/23 05:15:19;;;;;;;19.10;3.63;;;;;;;;;;5035064;28;20105;-79
2022/02/23 05:17:45;;;;;;;24.33;3.55;;;;;;;;;;5035921;28;20114;-79
2022/02/23 05:20:12;;;;;;;18.45;2.92;;;;;;;;;;5046463;28;20091;-80
2022/02/23 05:22:38;;;;;;;25.20;3.55;;;;;;;;;;5039359;28;20072;-79
2022/02/23 05:25:05;;;;;;;22.75;3.38;;;;;;;;;;5046812;28;20497;-79
2022/02/23 05:27:31;;;;;;;21.02;3.17;;;;;;;;;;5017620;28;20040;-79
2022/02/23 05:29:57;;;;;;;18.05;3.33;;;;;;;;;;5036551;28;20379;-79
2022/02/23 05:32:23;;;;;;;18.10;2.88;;;;;;;;;;5018473;28;20033;-79
2022/02/23 05:34:49;;;;;;;19.08;3.38;;;;;;;;;;5020798;28;20508;-79
2022/02/23 05:37:15;;;;;;;25.52;4.13;;;;;;;;;;5036736;28;20055;-79
2022/02/23 05:39:41;;;;;;;21.98;3.58;;;;;;;;;;5058535;28;20044;-79
2022/02/23 05:42:07;;;;;;;25.52;3.67;;;;;;;;;;5037197;28;20095;-79
2022/02/23 05:44:33;;;;;;;18.83;3.92;;;;;;;;;;5055811;28;20048;-79
2022/02/23 05:46:59;;;;;;;18.15;3.35;;;;;;;;;;5038735;28;20115;-79
2022/02/23 05:49:25;;;;;;;20.83;3.22;;;;;;;;;;5043994;28;20133;-79
2022/02/23 05:51:51;;;;;;;22.63;3.83;;;;;;;;;;5049624;28;20154;-79
2022/02/23 05:54:17;;;;;;;25.65;4.10;;;;;;;;;;5043496;28;20048;-79
2022/02/23 05:56:44;;;;;;;25.92;4.10;;;;;;;;;;5061977;28;20036;-79
2022/02/23 05:59:10;;;;;;;18.48;3.50;;;;;;;;;;5056021;28;20036;-79
2022/02/23 06:01:36;;;;;;;20.83;4.07;;;;;;;;;;5058399;28;20081;-79
2022/02/23 06:04:02;;;;;;;28.15;5.93;;;;;;;;;;5057166;28;20048;-79
2022/02/23 06:06:28;;;;;;;27.02;6.45;;;;;;;;;;5072446;28;20075;-79
2022/02/23 06:08:54;;;;;;;25.40;4.65;;;;;;;;;;5054757;28;20438;-79
2022/02/23 06:11:20;;;;;;;27.13;5.90;;;;;;;;;;5068056;28;20041;-79
2022/02/23 06:13:53;;;;;;;17.75;4.18;;;;;;;;;;5030353;28;20425;-79
2022/02/23 06:16:20;;;;;;;19.73;3.92;;;;;;;;;;5055639;28;20071;-79
2022/02/23 06:18:46;;;;;;;22.52;4.72;;;;;;;;;;5055509;28;20036;-79
2022/02/23 06:21:12;;;;;;;23.90;4.03;;;;;;;;;;5056222;28;20032;-79
2022/02/23 06:23:38;;;;;;;24.15;3.85;;;;;;;;;;5071946;28;20079;-79
2022/02/23 06:26:05;;;;;;;22.52;4.95;;;;;;;;;;5077332;28;20080;-79
2022/02/23 06:28:32;;;;;;;19.48;3.70;;;;;;;;;;5054969;28;20040;-79
2022/02/23 06:30:58;;;;;;;25.20;4.15;;;;;;;;;;5072442;28;20465;-79
2022/02/23 06:33:25;;;;;;;18.23;3.40;;;;;;;;;;5051139;28;20051;-79
2022/02/23 06:35:52;;;;;;;19.85;4.03;;;;;;;;;;5055232;28;20131;-79
2022/02/23 06:38:18;;;;;;;23.92;3.58;;;;;;;;;;5054851;28;20043;-79
2022/02/23 06:40:44;;;;;;;19.63;4.10;;;;;;;;;;5053005;28;20047;-79
2022/02/23 06:43:13;;;;;;;20.63;3.70;;;;;;;;;;5033720;28;20071;-79
2022/02/23 06:45:39;;;;;;;23.42;3.85;;;;;;;;;;5070032;28;20058;-79
2022/02/23 06:48:05;;;;;;;22.10;4.20;;;;;;;;;;5071763;28;20552;-79
2022/02/23 06:50:32;;;;;;;23.98;3.67;;;;;;;;;;5055368;28;20089;-79
2022/02/23 06:52:59;;;;;;;29.00;4.28;;;;;;;;;;5056536;28;20052;-80
2022/02/23 06:55:25;;;;;;;19.27;3.92;;;;;;;;;;5046568;28;20120;-79
2022/02/23 06:57:51;;;;;;;23.02;3.97;;;;;;;;;;5054563;28;20174;-80
2022/02/23 07:00:17;;;;;;;18.02;3.20;;;;;;;;;;5053076;28;20040;-80
2022/02/23 07:02:44;;;;;;;19.77;3.13;;;;;;;;;;5051620;28;20033;-80
2022/02/23 07:05:11;;;;;;;16.30;3.22;;;;;;;;;;5053928;28;20051;-80
2022/02/23 07:07:37;;;;;;;19.25;3.53;;;;;;;;;;5037912;28;20048;-80
2022/02/23 07:10:08;;;;;;;25.13;3.45;;;;;;;;;;5054063;28;20044;-80
2022/02/23 07:12:35;;;;;;;21.35;3.78;;;;;;;;;;5049332;28;20048;-79
2022/02/23 07:15:02;;;;;;;22.42;4.30;;;;;;;;;;5036285;28;20119;-79
2022/02/23 07:17:28;;;;;;;25.65;4.53;;;;;;;;;;5024673;28;20099;-80
2022/02/23 07:19:53;;;;;;;19.05;3.45;;;;;;;;;;5053012;28;20041;-80
2022/02/23 07:22:21;;;;;;;19.02;3.63;;;;;;;;;;5070864;28;20051;-79
2022/02/23 07:24:47;;;;;;;17.48;3.53;;;;;;;;;;5072282;28;20112;-80
2022/02/23 07:27:13;;;;;;;17.73;3.60;;;;;;;;;;5023712;28;20531;-79
2022/02/23 07:29:40;;;;;;;21.30;3.45;;;;;;;;;;5052171;28;20045;-80
2022/02/23 07:32:06;;;;;;;17.88;2.90;;;;;;;;;;5043305;28;20051;-80
2022/02/23 07:34:32;;;;;;;19.23;3.72;;;;;;;;;;5044997;28;20119;-79
2022/02/23 07:36:58;;;;;;;18.88;3.70;;;;;;;;;;5051949;28;20163;-79
2022/02/23 07:39:24;;;;;;;18.38;2.90;;;;;;;;;;5047986;28;20045;-79
2022/02/23 07:41:50;;;;;;;19.98;3.58;;;;;;;;;;5048114;28;20041;-79
2022/02/23 07:44:16;;;;;;;20.25;3.05;;;;;;;;;;5051428;28;20087;-79
2022/02/23 07:46:42;;;;;;;15.35;3.30;;;;;;;;;;5032941;28;20474;-79
2022/02/23 07:49:08;;;;;;;21.25;3.05;;;;;;;;;;5036997;28;20068;-79
2022/02/23 07:51:34;;;;;;;15.80;3.00;;;;;;;;;;5051575;28;20099;-80
2022/02/23 07:54:00;;;;;;;17.80;2.90;;;;;;;;;;5070109;28;20051;-81
2022/02/23 07:56:26;;;;;;;16.45;3.13;;;;;;;;;;5041568;28;20056;-80
2022/02/23 07:58:52;;;;;;;15.35;2.55;;;;;;;;;;5053424;28;20040;-80
2022/02/23 08:01:27;;;;;;;17.42;3.47;;;;;;;;;;5052858;28;20051;-80
2022/02/23 08:03:53;;;;;;;18.00;3.08;;;;;;;;;;5040715;28;20071;-80
2022/02/23 08:06:19;;;;;;;18.20;3.33;;;;;;;;;;5054787;28;20064;-80
2022/02/23 08:08:45;;;;;;;15.45;3.05;;;;;;;;;;5048078;28;20098;-80
2022/02/23 08:11:11;;;;;;;17.52;3.53;;;;;;;;;;5052791;28;20431;-80
2022/02/23 08:13:37;;;;;;;19.35;3.47;;;;;;;;;;5048305;28;20701;-80
2022/02/23 08:21:53;;;;;;;16.27;3.35;;;;;;;;;;4997013;28;20051;-80
2022/02/23 08:24:19;;;;;;;14.75;2.88;;;;;;;;;;5053758;28;20071;-80
2022/02/23 08:26:45;;;;;;;15.88;3.05;;;;;;;;;;5066791;28;20040;-81
2022/02/23 08:29:11;;;;;;;17.25;3.67;;;;;;;;;;5053304;28;20393;-80
2022/02/23 08:31:37;;;;;;;16.35;3.20;;;;;;;;;;5053891;28;20119;-79
2022/02/23 08:34:03;;;;;;;14.10;2.80;;;;;;;;;;5056481;28;20068;-79
2022/02/23 08:36:29;;;;;;;17.17;3.70;;;;;;;;;;5059049;28;20092;-79
2022/02/23 08:38:55;;;;;;;16.00;3.40;;;;;;;;;;5073177;28;20516;-81
2022/02/23 08:41:24;;;;;;;18.80;4.07;;;;;;;;;;5059035;28;20049;-80
2022/02/23 08:43:50;;;;;;;15.88;3.50;;;;;;;;;;5048353;28;20049;-79
2022/02/23 08:46:16;;;;;;;17.95;3.00;;;;;;;;;;5054133;28;20048;-79
2022/02/23 08:48:41;;;;;;;21.25;4.05;;;;;;;;;;5061652;28;20045;-80
2022/02/23 08:51:07;;;;;;;16.30;3.55;;;;;;;;;;5050420;28;20166;-80
2022/02/23 08:53:33;;;;;;;14.18;3.47;;;;;;;;;;5053198;28;20037;-80
2022/02/23 08:56:00;;;;;;;17.83;2.88;;;;;;;;;;5038692;28;20044;-80
2022/02/23 08:58:26;;;;;;;19.00;3.20;;;;;;;;;;5075714;28;20485;-80
2022/02/23 09:00:52;;;;;;;16.42;3.72;;;;;;;;;;5068313;28;20087;-80
2022/02/23 09:03:22;;;;;;;13.80;3.38;;;;;;;;;;5049403;28;20032;-80
2022/02/23 09:05:48;;;;;;;17.75;3.78;;;;;;;;;;5060027;28;20056;-80
2022/02/23 09:08:15;;;;;;;19.20;4.35;;;;;;;;;;5073922;28;20493;-80
2022/02/23 09:10:41;;;;;;;17.70;3.42;;;;;;;;;;5057974;28;20126;-80
2022/02/23 09:13:08;;;;;;;17.63;3.95;;;;;;;;;;5067860;28;20041;-80
2022/02/23 09:15:34;;;;;;;18.90;4.10;;;;;;;;;;5057016;28;20040;-80
2022/02/23 09:18:01;;;;;;;14.35;3.92;;;;;;;;;;5056215;28;20063;-80
2022/02/23 09:20:27;;;;;;;20.90;5.00;;;;;;;;;;5059634;28;20044;-80
2022/02/23 09:22:54;;;;;;;21.10;5.25;;;;;;;;;;5058062;28;20079;-80
2022/02/23 09:25:20;;;;;;;18.75;5.22;;;;;;;;;;5056990;28;20048;-80
2022/02/23 09:27:46;;;;;;;23.70;5.15;;;;;;;;;;5044652;28;20045;-79
2022/02/23 09:30:12;;;;;;;17.60;5.55;;;;;;;;;;5054988;28;20035;-79
2022/02/23 09:32:39;;;;;;;17.23;5.65;;;;;;;;;;5064283;28;20398;-79
2022/02/23 09:35:05;;;;;;;19.40;5.97;;;;;;;;;;5056302;28;20045;-80
2022/02/23 09:37:31;;;;;;;22.60;6.20;;;;;;;;;;5048218;28;20055;-79
2022/02/23 09:39:57;;;;;;;21.33;6.05;;;;;;;;;;5056734;28;20044;-80
2022/02/23 09:42:28;;;;;;;23.65;6.45;;;;;;;;;;5039150;28;20090;-80
2022/02/23 09:44:58;;;;;;;23.50;6.90;;;;;;;;;;5064316;28;20547;-80
2022/02/23 09:47:25;;;;;;;22.90;6.18;;;;;;;;;;5063383;28;20036;-80
2022/02/23 09:49:52;;;;;;;16.10;5.40;;;;;;;;;;5061807;28;20032;-80
2022/02/23 09:52:23;;;;;;;18.40;5.60;;;;;;;;;;5033470;28;20114;-81
2022/02/23 09:54:49;;;;;;;19.70;6.33;;;;;;;;;;5033580;28;20136;-81
2022/02/23 09:57:17;;;;;;;18.08;5.47;;;;;;;;;;5050772;28;20412;-81
2022/02/23 09:59:43;;;;;;;21.83;6.00;;;;;;;;;;5005827;28;20038;-81
2022/02/23 10:02:12;;;;;;;21.98;8.23;;;;;;;;;;5032282;28;20049;-81
2022/02/23 10:04:40;;;;;;;21.15;5.47;;;;;;;;;;5050182;28;20049;-81
2022/02/23 10:07:07;;;;;;;20.20;5.25;;;;;;;;;;5017164;28;20041;-81
2022/02/23 10:09:40;;;;;;;19.02;5.10;;;;;;;;;;5033316;28;20040;-81
2022/02/23 10:12:06;;;;;;;17.10;4.53;;;;;;;;;;5033762;28;20071;-81
2022/02/23 10:14:32;;;;;;;16.15;3.85;;;;;;;;;;5024016;28;20443;-81
2022/02/23 10:16:58;;;;;;;16.40;4.05;;;;;;;;;;5033748;28;20045;-80
2022/02/23 10:19:25;;;;;;;23.73;3.80;;;;;;;;;;5033573;28;20468;-81
2022/02/23 10:21:59;;;;;;;13.88;3.05;;;;;;;;;;5032944;28;20038;-81
2022/02/23 10:24:29;;;;;;;17.25;3.33;;;;;;;;;;5017059;28;20041;-81
2022/02/23 10:26:56;;;;;;;14.52;3.13;;;;;;;;;;5019882;28;20041;-81
2022/02/23 10:29:27;;;;;;;12.32;3.15;;;;;;;;;;5033546;28;20057;-81
2022/02/23 10:31:53;;;;;;;9.77;2.47;;;;;;;;;;5033100;28;20069;-81
2022/02/23 10:34:20;;;;;;;15.48;3.40;;;;;;;;;;5032825;28;20053;-81
2022/02/23 10:36:57;;;;;;;12.15;3.40;;;;;;;;;;5050317;28;20041;-81
2022/02/23 10:39:23;;;;;;;11.23;2.70;;;;;;;;;;5016510;28;20095;-80
2022/02/23 10:42:02;;;;;;;16.58;3.40;;;;;;;;;;5033150;28;20391;-81
2022/02/23 10:44:29;;;;;;;10.30;2.65;;;;;;;;;;5033447;28;20387;-81
2022/02/23 10:46:55;;;;;;;10.93;2.65;;;;;;;;;;5048822;28;20366;-81
2022/02/23 10:49:21;;;;;;;11.82;2.90;;;;;;;;;;5032983;28;20052;-81
2022/02/23 10:51:48;;;;;;;12.68;2.55;;;;;;;;;;5049809;28;20053;-80
2022/02/23 10:54:15;;;;;;;10.55;2.58;;;;;;;;;;5032634;28;20509;-81
2022/02/23 10:56:42;;;;;;;9.20;1.90;;;;;;;;;;5033046;28;20536;-81
2022/02/23 10:59:15;;;;;;;7.82;1.98;;;;;;;;;;5029564;28;20052;-81
2022/02/23 11:01:42;;;;;;;13.68;2.78;;;;;;;;;;5041032;28;20029;-81
2022/02/23 11:04:08;;;;;;;6.63;1.95;;;;;;;;;;5031757;28;20053;-81
2022/02/23 11:06:34;;;;;;;8.55;2.00;;;;;;;;;;5058900;28;20116;-81
2022/02/23 11:09:01;;;;;;;10.07;2.42;;;;;;;;;;5032889;28;20475;-79
2022/02/23 11:11:27;;;;;;;11.02;2.13;;;;;;;;;;5033042;28;20467;-80
2022/02/23 11:13:58;;;;;;;14.05;2.40;;;;;;;;;;5032458;28;20121;-80
2022/02/23 11:16:26;;;;;;;8.55;2.03;;;;;;;;;;5032544;28;20502;-80
2022/02/23 11:18:52;;;;;;;10.15;2.38;;;;;;;;;;5015497;28;20372;-80
2022/02/23 11:21:19;;;;;;;5.80;1.65;;;;;;;;;;5015369;28;20080;-80
2022/02/23 11:23:46;;;;;;;9.95;2.00;;;;;;;;;;5015916;28;20041;-80
2022/02/23 11:26:15;;;;;;;6.85;1.73;;;;;;;;;;5049202;28;20091;-80
2022/02/23 11:28:45;;;;;;;5.32;1.65;;;;;;;;;;5031817;28;20037;-79
2022/02/23 11:31:13;;;;;;;7.30;1.85;;;;;;;;;;5031984;28;20041;-80
2022/02/23 11:33:53;;;;;;;6.47;1.58;;;;;;;;;;5047899;28;20606;-80
2022/02/23 11:36:34;;;;;;;5.22;1.75;;;;;;;;;;5032003;28;20080;-80
2022/02/23 11:39:01;;;;;;;7.20;1.67;;;;;;;;;;5031821;28;20410;-81
2022/02/23 11:41:31;;;;;;;10.98;2.60;;;;;;;;;;5030945;28;20484;-80
2022/02/23 11:44:25;;;;;;;8.88;1.80;;;;;;;;;;5031599;28;20041;-80
2022/02/23 11:46:51;;;;;;;9.00;2.13;;;;;;;;;;5037723;28;20045;-81
2022/02/23 11:49:17;;;;;;;6.15;1.52;;;;;;;;;;5030932;28;20039;-80
2022/02/23 11:51:44;;;;;;;6.75;1.50;;;;;;;;;;5039374;28;20057;-81
2022/02/23 11:54:10;;;;;;;10.00;2.13;;;;;;;;;;5038081;28;20067;-81
2022/02/23 11:56:47;;;;;;;7.85;1.60;;;;;;;;;;5034120;28;20073;-81
2022/02/23 11:59:52;;;;;;;6.95;1.40;;;;;;;;;;5038583;28;20045;-81
2022/02/23 12:02:19;;;;;;;5.05;1.40;;;;;;;;;;4971866;28;20145;-81
2022/02/23 12:04:46;;;;;;;9.70;2.30;;;;;;;;;;4956595;28;20105;-81
2022/02/23 12:07:13;;;;;;;5.72;1.58;;;;;;;;;;4994470;28;20106;-81
2022/02/23 12:09:57;;;;;;;7.03;1.10;;;;;;;;;;5025459;28;20049;-81
2022/02/23 12:12:30;;;;;;;5.82;1.40;;;;;;;;;;5030224;28;20041;-81
2022/02/23 12:14:56;;;;;;;9.40;1.90;;;;;;;;;;5047312;28;20077;-80
2022/02/23 12:18:01;;;;;;;7.57;1.88;;;;;;;;;;5027243;28;20050;-79
2022/02/23 12:20:36;;;;;;;8.13;2.13;;;;;;;;;;4937653;29;20098;-80
2022/02/23 12:23:03;;;;;;;7.57;1.60;;;;;;;;;;5030926;28;20104;-80
2022/02/23 12:25:48;;;;;;;7.13;1.60;;;;;;;;;;5053605;28;20120;-80
2022/02/23 12:28:21;;;;;;;3.83;1.33;;;;;;;;;;5034201;28;20122;-79
2022/02/23 12:30:49;;;;;;;5.63;1.45;;;;;;;;;;5050454;28;20487;-79
2022/02/23 12:33:16;;;;;;;5.05;1.65;;;;;;;;;;5051078;28;20045;-79
2022/02/23 12:35:43;;;;;;;6.03;1.40;;;;;;;;;;5034616;28;20392;-80
2022/02/23 12:38:10;;;;;;;6.20;1.05;;;;;;;;;;5052460;28;20542;-80
2022/02/23 12:40:36;;;;;;;3.63;1.00;;;;;;;;;;5040774;28;20048;-79
2022/02/23 12:43:06;;;;;;;5.93;1.10;;;;;;;;;;5055419;28;20068;-79
2022/02/23 12:45:32;;;;;;;7.65;1.48;;;;;;;;;;5042240;28;20045;-79
2022/02/23 12:48:01;;;;;;;5.25;1.20;;;;;;;;;;5028193;28;20037;-79
2022/02/23 12:50:28;;;;;;;4.00;1.23;;;;;;;;;;5034312;28;20045;-80
2022/02/23 12:52:54;;;;;;;3.95;1.42;;;;;;;;;;5053304;28;20110;-80
2022/02/23 12:55:20;;;;;;;5.50;1.30;;;;;;;;;;5054044;28;20541;-79
2022/02/23 12:57:52;;;;;;;5.38;1.15;;;;;;;;;;5041555;28;20032;-80
2022/02/23 13:00:31;;;;;;;3.80;1.58;;;;;;;;;;5063495;28;20448;-79
2022/02/23 13:03:05;;;;;;;5.22;0.90;;;;;;;;;;5060364;28;20033;-79
2022/02/23 13:05:35;;;;;;;2.42;0.93;;;;;;;;;;5058534;28;20131;-78
2022/02/23 13:08:04;;;;;;;5.18;1.02;;;;;;;;;;5068155;28;20028;-79
2022/02/23 13:10:30;;;;;;;4.13;1.05;;;;;;;;;;5067009;28;20075;-78
2022/02/23 13:12:56;;;;;;;3.47;1.05;;;;;;;;;;5030539;28;20055;-78
2022/02/23 13:15:22;;;;;;;5.78;1.00;;;;;;;;;;5053231;28;20124;-78
2022/02/23 13:17:48;;;;;;;5.93;0.95;;;;;;;;;;5066289;28;20132;-79
2022/02/23 13:20:16;;;;;;;4.97;1.10;;;;;;;;;;5060464;28;20044;-79
2022/02/23 13:22:43;;;;;;;3.85;1.33;;;;;;;;;;5057806;28;20077;-79
2022/02/23 13:25:11;;;;;;;6.68;1.40;;;;;;;;;;5055007;28;20041;-79
2022/02/23 13:27:37;;;;;;;4.78;1.35;;;;;;;;;;5049703;28;20041;-80
2022/02/23 13:30:05;;;;;;;5.15;1.02;;;;;;;;;;5058661;28;20053;-79
2022/02/23 13:32:37;;;;;;;3.80;1.00;;;;;;;;;;5040733;28;20060;-80
2022/02/23 13:35:07;;;;;;;4.10;1.25;;;;;;;;;;5048118;28;20040;-80
2022/02/23 13:37:36;;;;;;;5.18;1.00;;;;;;;;;;5054508;28;20040;-79
2022/02/23 13:40:12;;;;;;;4.90;1.10;;;;;;;;;;5055333;28;20076;-79
2022/02/23 13:42:39;;;;;;;6.93;1.77;;;;;;;;;;5062020;28;20064;-79
2022/02/23 13:45:11;;;;;;;6.65;1.70;;;;;;;;;;5059571;28;20081;-80
2022/02/23 13:47:39;;;;;;;5.07;1.38;;;;;;;;;;5074718;28;20048;-79
2022/02/23 13:50:07;;;;;;;4.53;1.60;;;;;;;;;;5063258;28;20032;-80
2022/02/23 13:52:35;;;;;;;6.07;1.50;;;;;;;;;;5039678;28;20049;-79
2022/02/23 13:55:12;;;;;;;4.32;1.90;;;;;;;;;;5055941;28;20959;-80
2022/02/23 13:57:40;;;;;;;6.13;1.52;;;;;;;;;;5054913;28;20520;-80
2022/02/23 14:00:08;;;;;;;6.10;1.42;;;;;;;;;;5034582;28;20040;-80
2022/02/23 14:02:35;;;;;;;8.82;1.80;;;;;;;;;;5053637;28;20032;-80
2022/02/23 14:05:11;;;;;;;6.38;1.80;;;;;;;;;;5031883;28;20526;-80
2022/02/23 14:07:37;;;;;;;6.93;1.90;;;;;;;;;;5055666;28;20382;-80
2022/02/23 14:10:07;;;;;;;5.18;1.83;;;;;;;;;;5062512;28;20040;-80
2022/02/23 14:12:33;;;;;;;4.95;1.75;;;;;;;;;;5044207;28;20064;-79
2022/02/23 14:15:02;;;;;;;7.28;1.88;;;;;;;;;;5049850;28;20812;-79
2022/02/23 14:17:28;;;;;;;8.50;2.35;;;;;;;;;;5053575;28;20121;-80
2022/02/23 14:19:54;;;;;;;6.32;1.85;;;;;;;;;;5070222;28;20047;-80
2022/02/23 14:22:25;;;;;;;7.60;2.22;;;;;;;;;;5061444;28;20040;-80
2022/02/23 14:24:55;;;;;;;6.53;2.10;;;;;;;;;;5050355;28;20466;-80
2022/02/23 14:27:21;;;;;;;6.57;1.90;;;;;;;;;;5053646;28;20037;-79
2022/02/23 14:29:51;;;;;;;6.85;2.15;;;;;;;;;;5054329;28;20043;-79
2022/02/23 14:32:20;;;;;;;8.90;1.70;;;;;;;;;;5055298;28;20106;-79
2022/02/23 14:34:51;;;;;;;5.57;1.80;;;;;;;;;;5073029;28;20492;-79
2022/02/23 14:37:17;;;;;;;9.43;1.83;;;;;;;;;;5051617;28;20482;-79
2022/02/23 14:39:43;;;;;;;5.60;1.90;;;;;;;;;;5053394;28;20040;-79